Knossos Palace — SYQO — position and weather

sailwx.info

Track history (hours):
 
Tides and Currents Weather Stations Pressure Air Temp Water Temp Dewpoint Dewpoint Depression Visibility Wind Speed Wind Dir Waves Ship Positions

Knossos Palace

Last reported at 2015-Sep-01 01:33 UTC. Time now 2015-Sep-01 01:53 UTC.
Position N 35°56' E 024°45'.

Length 214 m; beam 26.4 m; draft 7.3 m.

Type: Ship. MMSI: 237641000.

Date/timePositionNaut miles runAvg speedWind from/ knotsBaromVisibWave heightAir tempDewpointWater temp
2015-Sep-01 01:33N 35°56' E 024°45'2120.8
2015-Sep-01 00:33N 36°14' E 024°32'8520.8
2015-Aug-31 20:30N 37°31' E 023°47'2020.9
2015-Aug-31 19:33N 37°48' E 023°36'8 8.3
2015-Aug-31 18:33N 37°57' E 023°38'0 0.0
2015-Aug-31 17:32N 37°57' E 023°38'0 0.0
2015-Aug-31 16:32N 37°57' E 023°38'0 0.0
2015-Aug-31 15:32N 37°57' E 023°38'0 0.0
2015-Aug-31 14:32N 37°57' E 023°38'0 0.0
2015-Aug-31 13:32N 37°57' E 023°38'0 0.0
2015-Aug-31 12:32N 37°57' E 023°38'0 0.0
2015-Aug-31 11:32N 37°57' E 023°38'0 0.0
2015-Aug-31 10:32N 37°57' E 023°38'0 0.0
2015-Aug-31 09:32N 37°57' E 023°38'0 0.0
2015-Aug-31 08:32N 37°57' E 023°38'0 0.0
2015-Aug-31 07:32N 37°57' E 023°38'0 0.0
2015-Aug-31 06:32N 37°57' E 023°38'0 0.0
2015-Aug-31 05:32N 37°57' E 023°38'0 0.0
2015-Aug-31 04:32N 37°57' E 023°38'1 1.0
2015-Aug-31 03:33N 37°56' E 023°37'1918.5
2015-Aug-31 02:34N 37°39' E 023°47'8220.5
2015-Aug-30 22:33N 36°23' E 024°25'2121.0
2015-Aug-30 21:33N 36°05' E 024°39'2121.4
2015-Aug-30 20:33N 35°47' E 024°52'2121.0
2015-Aug-30 19:33N 35°28' E 025°05'8 8.3
2015-Aug-30 18:32N 35°21' E 025°09'0 0.0
2015-Aug-30 17:33N 35°21' E 025°09'0 0.0
2015-Aug-30 16:21N 35°21' E 025°09'2 2.8
2015-Aug-30 15:33N 35°23' E 025°09'2424.2
2015-Aug-30 14:33N 35°44' E 024°54'2322.8
2015-Aug-30 13:33N 36°03' E 024°40'9423.0
2015-Aug-30 09:26N 37°29' E 023°49'2123.6
2015-Aug-30 08:34N 37°48' E 023°38'9 8.9
2015-Aug-30 07:33N 37°57' E 023°38'0 0.0
2015-Aug-30 06:31N 37°57' E 023°38'0 0.0
2015-Aug-30 05:31N 37°57' E 023°38'0 0.0
2015-Aug-30 04:31N 37°57' E 023°38'1 1.5
2015-Aug-30 03:34N 37°56' E 023°37'2020.0
2015-Aug-30 02:33N 37°37' E 023°47'8220.3
2015-Aug-29 22:30N 36°21' E 024°27'1920.4
2015-Aug-29 21:33N 36°04' E 024°39'2121.2
2015-Aug-29 20:33N 35°46' E 024°52'26 5.1
2015-Aug-29 15:25N 35°23' E 025°08'2023.5
2015-Aug-29 14:33N 35°41' E 024°56'2323.1
2015-Aug-29 13:33N 36°01' E 024°41'9923.4
2015-Aug-29 09:18N 37°30' E 023°47'1824.1
2015-Aug-29 08:33N 37°47' E 023°38'10 9.8
2015-Aug-29 07:33N 37°57' E 023°38'0 0.0
2015-Aug-29 06:31N 37°57' E 023°38'0 0.0
2015-Aug-29 05:31N 37°57' E 023°38'0 0.0
2015-Aug-29 04:31N 37°57' E 023°38'1 1.1
2015-Aug-29 03:34N 37°56' E 023°37'1818.1
2015-Aug-29 02:33N 37°40' E 023°47'8520.6
2015-Aug-28 22:26N 36°21' E 024°27'1921.2
2015-Aug-28 21:33N 36°05' E 024°39'2121.3
2015-Aug-28 20:33N 35°46' E 024°52'26 4.9
2015-Aug-28 15:21N 35°24' E 025°08'1923.8
2015-Aug-28 14:33N 35°41' E 024°56'2423.7
2015-Aug-28 13:33N 36°01' E 024°41'10023.4
2015-Aug-28 09:15N 37°32' E 023°46'1623.8
2015-Aug-28 08:33N 37°47' E 023°39'10 9.6
2015-Aug-28 07:33N 37°57' E 023°38'0 0.0
2015-Aug-28 06:33N 37°57' E 023°38'0 0.0
2015-Aug-28 05:33N 37°57' E 023°38'0 0.0
2015-Aug-28 04:33N 37°57' E 023°38'2 2.3
2015-Aug-28 03:34N 37°54' E 023°38'1919.1
2015-Aug-28 02:34N 37°37' E 023°48'8720.5
2015-Aug-27 22:18N 36°17' E 024°30'1620.9
2015-Aug-27 21:33N 36°03' E 024°40'2221.0
2015-Aug-27 20:30N 35°44' E 024°54'26 1.6
2015-Aug-27 04:06N 35°21' E 025°09'8 8.2
2015-Aug-27 03:09N 35°28' E 025°05'1220.0
2015-Aug-27 02:33N 35°38' E 024°57'2120.8
2015-Aug-27 01:33N 35°56' E 024°45'10720.8
2015-Aug-26 20:24N 37°33' E 023°46'1821.0
2015-Aug-26 19:34N 37°49' E 023°38'8 7.7
2015-Aug-26 18:33N 37°57' E 023°38'0 0.0
2015-Aug-26 17:33N 37°57' E 023°38'0 0.0
2015-Aug-26 16:33N 37°57' E 023°38'0 0.0
2015-Aug-26 15:33N 37°57' E 023°38'0 0.0
2015-Aug-26 14:33N 37°57' E 023°38'0 0.0
2015-Aug-26 13:33N 37°57' E 023°38'0 0.0
2015-Aug-26 12:33N 37°57' E 023°38'0 0.0
2015-Aug-26 11:33N 37°57' E 023°38'0 0.0
2015-Aug-26 10:33N 37°57' E 023°38'0 0.0
2015-Aug-26 09:33N 37°57' E 023°38'0 0.0
2015-Aug-26 08:33N 37°57' E 023°38'0 0.0
2015-Aug-26 07:33N 37°57' E 023°38'0 0.0
2015-Aug-26 06:33N 37°57' E 023°38'0 0.0
2015-Aug-26 05:33N 37°57' E 023°38'0 0.0
2015-Aug-26 04:33N 37°57' E 023°38'0 0.2
2015-Aug-26 03:34N 37°56' E 023°38'1817.5
2015-Aug-26 02:33N 37°40' E 023°47'8621.0
2015-Aug-25 22:26N 36°20' E 024°27'1921.0
2015-Aug-25 21:33N 36°04' E 024°39'2120.9
2015-Aug-25 20:33N 35°46' E 024°52'9 0.5
2015-Aug-25 02:31N 35°39' E 024°57'2020.6
2015-Aug-25 01:33N 35°56' E 024°45'10720.7
2015-Aug-24 20:25N 37°32' E 023°47'1821.0
2015-Aug-24 19:33N 37°48' E 023°38'8 8.2
2015-Aug-24 18:34N 37°57' E 023°38'0 0.0
2015-Aug-24 17:31N 37°57' E 023°38'0 0.0
2015-Aug-24 16:31N 37°57' E 023°38'0 0.0
2015-Aug-24 15:31N 37°57' E 023°38'0 0.0
2015-Aug-24 14:31N 37°57' E 023°38'0 0.0
2015-Aug-24 13:31N 37°57' E 023°38'0 0.0
2015-Aug-24 12:31N 37°57' E 023°38'0 0.0
2015-Aug-24 11:31N 37°57' E 023°38'0 0.0
2015-Aug-24 10:28N 37°57' E 023°38'0 0.0
2015-Aug-24 09:31N 37°57' E 023°38'0 0.0
2015-Aug-24 08:31N 37°57' E 023°38'0 0.0
2015-Aug-24 07:31N 37°57' E 023°38'0 0.0
2015-Aug-24 06:32N 37°57' E 023°38'0 0.0
2015-Aug-24 05:22N 37°57' E 023°38'0 0.0
2015-Aug-24 04:28N 37°57' E 023°38'1 0.8
2015-Aug-24 03:34N 37°56' E 023°37'1818.1
2015-Aug-24 02:33N 37°40' E 023°47'9320.7
2015-Aug-23 22:04N 36°14' E 024°31'1120.8
2015-Aug-23 21:32N 36°04' E 024°39'2720.9
2015-Aug-23 20:13N 35°41' E 024°56'14 2.7
2015-Aug-23 15:08N 35°29' E 025°05'1423.8
2015-Aug-23 14:33N 35°41' E 024°56'2323.4
2015-Aug-23 13:33N 36°01' E 024°41'10223.5
2015-Aug-23 09:13N 37°33' E 023°47'1623.9
2015-Aug-23 08:34N 37°47' E 023°38'9 9.4
2015-Aug-23 07:33N 37°57' E 023°38'0 0.0
2015-Aug-23 06:31N 37°57' E 023°38'0 0.0
2015-Aug-23 05:28N 37°57' E 023°38'0 0.0
2015-Aug-23 04:28N 37°57' E 023°38'1 1.5
2015-Aug-23 03:33N 37°56' E 023°37'2019.5
2015-Aug-23 02:33N 37°38' E 023°48'8920.6
2015-Aug-22 22:15N 36°16' E 024°30'1420.6
2015-Aug-22 21:33N 36°04' E 024°39'2120.7
2015-Aug-22 20:33N 35°46' E 024°52'6 0.9
2015-Aug-22 14:32N 35°41' E 024°56'2222.9
2015-Aug-22 13:33N 36°00' E 024°42'10323.6
2015-Aug-22 09:11N 37°33' E 023°46'1524.2
2015-Aug-22 08:34N 37°47' E 023°38'10 9.7
2015-Aug-22 07:33N 37°57' E 023°38'0 0.0
2015-Aug-22 06:31N 37°57' E 023°38'0 0.0
2015-Aug-22 05:31N 37°57' E 023°38'0 0.0
2015-Aug-22 04:31N 37°57' E 023°38'1 1.0
2015-Aug-22 03:33N 37°56' E 023°37'1918.9
2015-Aug-22 02:34N 37°39' E 023°47'  
Track history (hours):
 
Tides and Currents Weather Stations Pressure Air Temp Water Temp Dewpoint Dewpoint Depression Visibility Wind Speed Wind Dir Waves Ship Positions

Knossos Palace

Last reported at 2015-Sep-01 01:33 UTC. Time now 2015-Sep-01 01:53 UTC.
Position N 35°56' E 024°45'.

Length 214 m; beam 26.4 m; draft 7.3 m.

Type: Ship. MMSI: 237641000.

Date/timePositionNaut miles runAvg speedWind from/ knotsBaromVisibWave heightAir tempDewpointWater temp
2015-Sep-01 01:33N 35°56' E 024°45'2120.8
2015-Sep-01 00:33N 36°14' E 024°32'8520.8
2015-Aug-31 20:30N 37°31' E 023°47'2020.9
2015-Aug-31 19:33N 37°48' E 023°36'8 8.3
2015-Aug-31 18:33N 37°57' E 023°38'0 0.0
2015-Aug-31 17:32N 37°57' E 023°38'0 0.0
2015-Aug-31 16:32N 37°57' E 023°38'0 0.0
2015-Aug-31 15:32N 37°57' E 023°38'0 0.0
2015-Aug-31 14:32N 37°57' E 023°38'0 0.0
2015-Aug-31 13:32N 37°57' E 023°38'0 0.0
2015-Aug-31 12:32N 37°57' E 023°38'0 0.0
2015-Aug-31 11:32N 37°57' E 023°38'0 0.0
2015-Aug-31 10:32N 37°57' E 023°38'0 0.0
2015-Aug-31 09:32N 37°57' E 023°38'0 0.0
2015-Aug-31 08:32N 37°57' E 023°38'0 0.0
2015-Aug-31 07:32N 37°57' E 023°38'0 0.0
2015-Aug-31 06:32N 37°57' E 023°38'0 0.0
2015-Aug-31 05:32N 37°57' E 023°38'0 0.0
2015-Aug-31 04:32N 37°57' E 023°38'1 1.0
2015-Aug-31 03:33N 37°56' E 023°37'1918.5
2015-Aug-31 02:34N 37°39' E 023°47'8220.5
2015-Aug-30 22:33N 36°23' E 024°25'2121.0
2015-Aug-30 21:33N 36°05' E 024°39'2121.4
2015-Aug-30 20:33N 35°47' E 024°52'2121.0
2015-Aug-30 19:33N 35°28' E 025°05'8 8.3
2015-Aug-30 18:32N 35°21' E 025°09'0 0.0
2015-Aug-30 17:33N 35°21' E 025°09'0 0.0
2015-Aug-30 16:21N 35°21' E 025°09'2 2.8
2015-Aug-30 15:33N 35°23' E 025°09'2424.2
2015-Aug-30 14:33N 35°44' E 024°54'2322.8
2015-Aug-30 13:33N 36°03' E 024°40'9423.0
2015-Aug-30 09:26N 37°29' E 023°49'2123.6
2015-Aug-30 08:34N 37°48' E 023°38'9 8.9
2015-Aug-30 07:33N 37°57' E 023°38'0 0.0
2015-Aug-30 06:31N 37°57' E 023°38'0 0.0
2015-Aug-30 05:31N 37°57' E 023°38'0 0.0
2015-Aug-30 04:31N 37°57' E 023°38'1 1.5
2015-Aug-30 03:34N 37°56' E 023°37'2020.0
2015-Aug-30 02:33N 37°37' E 023°47'8220.3
2015-Aug-29 22:30N 36°21' E 024°27'1920.4
2015-Aug-29 21:33N 36°04' E 024°39'2121.2
2015-Aug-29 20:33N 35°46' E 024°52'26 5.1
2015-Aug-29 15:25N 35°23' E 025°08'2023.5
2015-Aug-29 14:33N 35°41' E 024°56'2323.1
2015-Aug-29 13:33N 36°01' E 024°41'9923.4
2015-Aug-29 09:18N 37°30' E 023°47'1824.1
2015-Aug-29 08:33N 37°47' E 023°38'10 9.8
2015-Aug-29 07:33N 37°57' E 023°38'0 0.0
2015-Aug-29 06:31N 37°57' E 023°38'0 0.0
2015-Aug-29 05:31N 37°57' E 023°38'0 0.0
2015-Aug-29 04:31N 37°57' E 023°38'1 1.1
2015-Aug-29 03:34N 37°56' E 023°37'1818.1
2015-Aug-29 02:33N 37°40' E 023°47'8520.6
2015-Aug-28 22:26N 36°21' E 024°27'1921.2
2015-Aug-28 21:33N 36°05' E 024°39'2121.3
2015-Aug-28 20:33N 35°46' E 024°52'26 4.9
2015-Aug-28 15:21N 35°24' E 025°08'1923.8
2015-Aug-28 14:33N 35°41' E 024°56'2423.7
2015-Aug-28 13:33N 36°01' E 024°41'10023.4
2015-Aug-28 09:15N 37°32' E 023°46'1623.8
2015-Aug-28 08:33N 37°47' E 023°39'10 9.6
2015-Aug-28 07:33N 37°57' E 023°38'0 0.0
2015-Aug-28 06:33N 37°57' E 023°38'0 0.0
2015-Aug-28 05:33N 37°57' E 023°38'0 0.0
2015-Aug-28 04:33N 37°57' E 023°38'2 2.3
2015-Aug-28 03:34N 37°54' E 023°38'1919.1
2015-Aug-28 02:34N 37°37' E 023°48'8720.5
2015-Aug-27 22:18N 36°17' E 024°30'1620.9
2015-Aug-27 21:33N 36°03' E 024°40'2221.0
2015-Aug-27 20:30N 35°44' E 024°54'26 1.6
2015-Aug-27 04:06N 35°21' E 025°09'8 8.2
2015-Aug-27 03:09N 35°28' E 025°05'1220.0
2015-Aug-27 02:33N 35°38' E 024°57'2120.8
2015-Aug-27 01:33N 35°56' E 024°45'10720.8
2015-Aug-26 20:24N 37°33' E 023°46'1821.0
2015-Aug-26 19:34N 37°49' E 023°38'8 7.7
2015-Aug-26 18:33N 37°57' E 023°38'0 0.0
2015-Aug-26 17:33N 37°57' E 023°38'0 0.0
2015-Aug-26 16:33N 37°57' E 023°38'0 0.0
2015-Aug-26 15:33N 37°57' E 023°38'0 0.0
2015-Aug-26 14:33N 37°57' E 023°38'0 0.0
2015-Aug-26 13:33N 37°57' E 023°38'0 0.0
2015-Aug-26 12:33N 37°57' E 023°38'0 0.0
2015-Aug-26 11:33N 37°57' E 023°38'0 0.0
2015-Aug-26 10:33N 37°57' E 023°38'0 0.0
2015-Aug-26 09:33N 37°57' E 023°38'0 0.0
2015-Aug-26 08:33N 37°57' E 023°38'0 0.0
2015-Aug-26 07:33N 37°57' E 023°38'0 0.0
2015-Aug-26 06:33N 37°57' E 023°38'0 0.0
2015-Aug-26 05:33N 37°57' E 023°38'0 0.0
2015-Aug-26 04:33N 37°57' E 023°38'0 0.2
2015-Aug-26 03:34N 37°56' E 023°38'1817.5
2015-Aug-26 02:33N 37°40' E 023°47'8621.0
2015-Aug-25 22:26N 36°20' E 024°27'1921.0
2015-Aug-25 21:33N 36°04' E 024°39'2120.9
2015-Aug-25 20:33N 35°46' E 024°52'9 0.5
2015-Aug-25 02:31N 35°39' E 024°57'2020.6
2015-Aug-25 01:33N 35°56' E 024°45'10720.7
2015-Aug-24 20:25N 37°32' E 023°47'1821.0
2015-Aug-24 19:33N 37°48' E 023°38'8 8.2
2015-Aug-24 18:34N 37°57' E 023°38'0 0.0
2015-Aug-24 17:31N 37°57' E 023°38'0 0.0
2015-Aug-24 16:31N 37°57' E 023°38'0 0.0
2015-Aug-24 15:31N 37°57' E 023°38'0 0.0
2015-Aug-24 14:31N 37°57' E 023°38'0 0.0
2015-Aug-24 13:31N 37°57' E 023°38'0 0.0
2015-Aug-24 12:31N 37°57' E 023°38'0 0.0
2015-Aug-24 11:31N 37°57' E 023°38'0 0.0
2015-Aug-24 10:28N 37°57' E 023°38'0 0.0
2015-Aug-24 09:31N 37°57' E 023°38'0 0.0
2015-Aug-24 08:31N 37°57' E 023°38'0 0.0
2015-Aug-24 07:31N 37°57' E 023°38'0 0.0
2015-Aug-24 06:32N 37°57' E 023°38'0 0.0
2015-Aug-24 05:22N 37°57' E 023°38'0 0.0
2015-Aug-24 04:28N 37°57' E 023°38'1 0.8
2015-Aug-24 03:34N 37°56' E 023°37'1818.1
2015-Aug-24 02:33N 37°40' E 023°47'9320.7
2015-Aug-23 22:04N 36°14' E 024°31'1120.8
2015-Aug-23 21:32N 36°04' E 024°39'2720.9
2015-Aug-23 20:13N 35°41' E 024°56'14 2.7
2015-Aug-23 15:08N 35°29' E 025°05'1423.8
2015-Aug-23 14:33N 35°41' E 024°56'2323.4
2015-Aug-23 13:33N 36°01' E 024°41'10223.5
2015-Aug-23 09:13N 37°33' E 023°47'1623.9
2015-Aug-23 08:34N 37°47' E 023°38'9 9.4
2015-Aug-23 07:33N 37°57' E 023°38'0 0.0
2015-Aug-23 06:31N 37°57' E 023°38'0 0.0
2015-Aug-23 05:28N 37°57' E 023°38'0 0.0
2015-Aug-23 04:28N 37°57' E 023°38'1 1.5
2015-Aug-23 03:33N 37°56' E 023°37'2019.5
2015-Aug-23 02:33N 37°38' E 023°48'8920.6
2015-Aug-22 22:15N 36°16' E 024°30'1420.6
2015-Aug-22 21:33N 36°04' E 024°39'2120.7
2015-Aug-22 20:33N 35°46' E 024°52'6 0.9
2015-Aug-22 14:32N 35°41' E 024°56'2222.9
2015-Aug-22 13:33N 36°00' E 024°42'10323.6
2015-Aug-22 09:11N 37°33' E 023°46'1524.2
2015-Aug-22 08:34N 37°47' E 023°38'10 9.7
2015-Aug-22 07:33N 37°57' E 023°38'0 0.0
2015-Aug-22 06:31N 37°57' E 023°38'0 0.0
2015-Aug-22 05:31N 37°57' E 023°38'0 0.0
2015-Aug-22 04:31N 37°57' E 023°38'1 1.0
2015-Aug-22 03:33N 37°56' E 023°37'1918.9
2015-Aug-22 02:34N 37°39' E 023°47'  

Dump ship's entire track history